createdAt,value
2023-04-11T00:00:22.611Z,41.58
2023-04-11T00:01:22.665Z,41.73
2023-04-11T00:02:22.799Z,43.11
2023-04-11T00:03:23.333Z,41.84
2023-04-11T00:04:23.007Z,43.31
2023-04-11T00:05:22.881Z,43.07
2023-04-11T00:06:22.954Z,42.59
2023-04-11T00:07:22.993Z,40.97
2023-04-11T00:08:23.033Z,43.25
2023-04-11T00:09:23.106Z,41.64
2023-04-11T00:10:23.153Z,40.89
2023-04-11T00:11:23.192Z,43.67
2023-04-11T00:12:23.278Z,41.84
2023-04-11T00:13:23.313Z,41.95
2023-04-11T00:14:23.387Z,42.02
2023-04-11T00:15:23.469Z,41.53
2023-04-11T00:16:23.509Z,40.29
2023-04-11T00:17:23.739Z,41.76
2023-04-11T00:18:23.627Z,42.57
2023-04-11T00:19:23.742Z,41.18
2023-04-11T00:20:23.746Z,40.35
2023-04-11T00:21:23.785Z,40.35
2023-04-11T00:22:23.840Z,42.39
2023-04-11T00:23:23.927Z,41.88
2023-04-11T00:24:23.960Z,41.97
2023-04-11T00:25:24.040Z,41.33
2023-04-11T00:26:24.104Z,40.96
2023-04-11T00:27:24.159Z,40.30
2023-04-11T00:28:24.212Z,38.81
2023-04-11T00:29:24.280Z,38.66
2023-04-11T00:30:24.369Z,41.49
2023-04-11T00:31:24.457Z,39.59
2023-04-11T00:32:24.472Z,40.67
2023-04-11T00:33:25.325Z,40.50
2023-04-11T00:34:24.579Z,42.24
2023-04-11T00:35:24.659Z,39.08
2023-04-11T00:36:24.852Z,40.11
2023-04-11T00:37:24.775Z,38.77
2023-04-11T00:38:24.816Z,39.24
2023-04-11T00:39:24.881Z,40.26
2023-04-11T00:40:25.002Z,38.28
2023-04-11T00:41:25.027Z,38.97
2023-04-11T00:42:25.087Z,39.75
2023-04-11T00:43:25.113Z,39.27
2023-04-11T00:44:25.196Z,38.42
2023-04-11T00:45:25.274Z,37.84
2023-04-11T00:46:25.358Z,39.89
2023-04-11T00:47:25.404Z,39.64
2023-04-11T00:48:25.449Z,38.30
2023-04-11T00:49:25.501Z,38.95
2023-04-11T00:50:25.561Z,39.33
2023-04-11T00:51:25.598Z,39.94
2023-04-11T00:52:25.701Z,38.05
2023-04-11T00:53:25.752Z,37.89
2023-04-11T00:54:25.798Z,36.71
2023-04-11T00:55:25.847Z,37.88
2023-04-11T00:56:25.903Z,37.64
2023-04-11T00:57:25.981Z,39.17
2023-04-11T00:58:26.009Z,38.81
2023-04-11T00:59:26.074Z,38.88
2023-04-11T01:00:26.155Z,38.67
2023-04-11T01:01:26.203Z,39.77
2023-04-11T01:02:26.303Z,39.84
2023-04-11T01:03:26.564Z,40.95
2023-04-11T01:04:26.385Z,39.28
2023-04-11T01:05:26.441Z,38.19
2023-04-11T01:06:26.850Z,39.38
2023-04-11T01:07:26.620Z,39.79
2023-04-11T01:08:26.671Z,37.13
2023-04-11T01:09:26.726Z,40.01
2023-04-11T01:10:26.794Z,38.16
2023-04-11T01:11:26.845Z,38.72
2023-04-11T01:12:26.905Z,40.09
2023-04-11T01:13:26.979Z,39.73
2023-04-11T01:14:27.033Z,38.07
2023-04-11T01:15:27.120Z,37.05
2023-04-11T01:16:27.221Z,39.57
2023-04-11T01:17:27.237Z,37.04
2023-04-11T01:18:27.261Z,36.20
2023-04-11T01:19:27.346Z,38.53
2023-04-11T01:20:27.393Z,37.48
2023-04-11T01:21:27.468Z,37.02
2023-04-11T01:22:27.549Z,36.55
2023-04-11T01:23:27.617Z,35.90
2023-04-11T01:24:27.707Z,37.33
2023-04-11T01:25:27.766Z,37.78
2023-04-11T01:26:27.797Z,38.63
2023-04-11T01:27:27.848Z,36.66
2023-04-11T01:28:27.923Z,35.80
2023-04-11T01:29:27.991Z,37.67
2023-04-11T01:30:28.049Z,36.43
2023-04-11T01:31:28.139Z,37.38
2023-04-11T01:32:28.213Z,36.40
2023-04-11T01:33:28.224Z,36.04
2023-04-11T01:34:28.436Z,34.69
2023-04-11T01:35:28.366Z,37.01
2023-04-11T01:36:28.414Z,37.09
2023-04-11T01:37:28.490Z,35.19
2023-04-11T01:38:28.536Z,35.36
2023-04-11T01:39:28.596Z,35.35
2023-04-11T01:40:28.637Z,36.59
2023-04-11T01:41:28.716Z,36.65
2023-04-11T01:42:28.759Z,35.09
2023-04-11T01:43:28.862Z,36.70
2023-04-11T01:44:28.816Z,35.81
2023-04-11T01:45:28.930Z,36.45
2023-04-11T01:46:28.951Z,37.45
2023-04-11T01:47:29.017Z,38.03
2023-04-11T01:48:29.207Z,35.71
2023-04-11T01:49:29.107Z,37.33
2023-04-11T01:50:29.172Z,36.31
2023-04-11T01:51:29.231Z,36.58
2023-04-11T01:52:29.853Z,37.57
2023-04-11T01:53:29.337Z,36.76
2023-04-11T01:54:29.405Z,36.67
2023-04-11T01:55:29.466Z,36.02
2023-04-11T01:56:29.567Z,36.10
2023-04-11T01:57:29.589Z,36.61
2023-04-11T01:58:29.639Z,33.89
2023-04-11T01:59:29.696Z,34.49
2023-04-11T02:00:29.749Z,35.19
2023-04-11T02:01:29.833Z,35.52
2023-04-11T02:02:29.921Z,35.28
2023-04-11T02:03:30.112Z,36.80
2023-04-11T02:04:30.052Z,35.34
2023-04-11T02:05:30.013Z,37.64
2023-04-11T02:06:30.102Z,36.66
2023-04-11T02:07:30.158Z,35.81
2023-04-11T02:08:30.164Z,36.08
2023-04-11T02:09:30.244Z,34.10
2023-04-11T02:10:30.229Z,35.17
2023-04-11T02:11:30.340Z,36.43
2023-04-11T02:12:30.337Z,35.22
2023-04-11T02:13:30.365Z,37.00
2023-04-11T02:14:30.451Z,35.80
2023-04-11T02:15:30.494Z,36.09
2023-04-11T02:16:30.542Z,35.56
2023-04-11T02:17:30.626Z,35.77
2023-04-11T02:18:30.578Z,35.68
2023-04-11T02:19:30.649Z,33.16
2023-04-11T02:20:30.707Z,35.36
2023-04-11T02:21:30.763Z,36.05
2023-04-11T02:22:30.818Z,34.45
2023-04-11T02:23:30.859Z,35.09
2023-04-11T02:24:30.912Z,37.07
2023-04-11T02:25:30.909Z,36.49
2023-04-11T02:26:30.979Z,38.42
2023-04-11T02:27:31.051Z,37.42
2023-04-11T02:28:31.064Z,36.38
2023-04-11T02:29:31.106Z,35.61
2023-04-11T02:30:31.150Z,35.80
2023-04-11T02:31:31.254Z,34.01
2023-04-11T02:32:31.274Z,35.41
2023-04-11T02:33:31.291Z,35.62
2023-04-11T02:34:31.325Z,35.78
2023-04-11T02:35:31.401Z,35.43
2023-04-11T02:36:31.389Z,33.46
2023-04-11T02:37:31.414Z,34.25
2023-04-11T02:38:31.419Z,34.71
2023-04-11T02:39:31.441Z,33.76
2023-04-11T02:40:31.487Z,32.20
2023-04-11T02:41:31.537Z,34.22
2023-04-11T02:42:31.583Z,33.72
2023-04-11T02:43:31.614Z,34.77
2023-04-11T02:44:31.652Z,34.19
2023-04-11T02:45:31.676Z,34.08
2023-04-11T02:46:31.755Z,31.36
2023-04-11T02:47:31.821Z,33.51
2023-04-11T02:48:31.796Z,32.62
2023-04-11T02:49:31.845Z,32.52
2023-04-11T02:50:31.884Z,35.75
2023-04-11T02:51:31.937Z,33.63
2023-04-11T02:52:31.976Z,33.97
2023-04-11T02:53:32.000Z,33.64
2023-04-11T02:54:31.993Z,32.04
2023-04-11T02:55:32.020Z,34.04
2023-04-11T02:56:32.056Z,33.07
2023-04-11T02:57:32.062Z,31.49
2023-04-11T02:58:32.113Z,32.03
2023-04-11T02:59:32.129Z,32.66
2023-04-11T03:00:32.140Z,32.73
2023-04-11T03:01:32.232Z,32.46
2023-04-11T03:02:32.468Z,34.17
2023-04-11T03:03:32.323Z,31.90
2023-04-11T03:04:32.267Z,31.86
2023-04-11T03:05:32.268Z,32.68
2023-04-11T03:06:32.275Z,34.18
2023-04-11T03:07:32.287Z,33.19
2023-04-11T03:08:32.293Z,33.76
2023-04-11T03:09:32.367Z,32.02
2023-04-11T03:10:32.394Z,33.12
2023-04-11T03:11:32.399Z,34.93
2023-04-11T03:12:32.469Z,30.29
2023-04-11T03:13:32.453Z,32.97
2023-04-11T03:14:32.477Z,32.52
2023-04-11T03:15:32.606Z,33.60
2023-04-11T03:16:32.560Z,32.21
2023-04-11T03:17:32.561Z,33.81
2023-04-11T03:18:32.564Z,32.16
2023-04-11T03:19:32.599Z,33.76
2023-04-11T03:20:32.664Z,30.89
2023-04-11T03:21:32.638Z,34.78
2023-04-11T03:22:32.646Z,32.89
2023-04-11T03:23:32.658Z,31.81
2023-04-11T03:24:32.701Z,30.28
2023-04-11T03:25:32.684Z,33.29
2023-04-11T03:26:32.730Z,32.21
2023-04-11T03:27:32.717Z,31.28
2023-04-11T03:28:32.735Z,29.80
2023-04-11T03:29:32.756Z,31.90
2023-04-11T03:30:32.737Z,33.22
2023-04-11T03:31:32.758Z,34.27
2023-04-11T03:32:32.786Z,33.83
2023-04-11T03:33:32.813Z,32.00
2023-04-11T03:34:32.853Z,30.89
2023-04-11T03:35:32.844Z,30.72
2023-04-11T03:36:32.848Z,30.28
2023-04-11T03:37:32.877Z,30.24
2023-04-11T03:38:32.935Z,31.49
2023-04-11T03:39:32.981Z,29.73
2023-04-11T03:40:33.010Z,29.38
2023-04-11T03:41:33.032Z,27.54
2023-04-11T03:42:33.071Z,30.30
2023-04-11T03:43:33.106Z,30.73
2023-04-11T03:44:33.114Z,31.63
2023-04-11T03:45:33.104Z,30.79
2023-04-11T03:46:33.152Z,31.35
2023-04-11T03:47:33.131Z,30.28
2023-04-11T03:48:33.146Z,30.58
2023-04-11T03:49:33.119Z,29.22
2023-04-11T03:50:33.152Z,29.17
2023-04-11T03:51:33.160Z,29.82
2023-04-11T03:52:33.169Z,29.56
2023-04-11T03:53:33.163Z,30.57
2023-04-11T03:54:33.176Z,29.34
2023-04-11T03:55:33.208Z,30.12
2023-04-11T03:56:33.212Z,30.53
2023-04-11T03:57:33.222Z,28.61
2023-04-11T03:58:33.253Z,29.92
2023-04-11T03:59:33.282Z,30.30
2023-04-11T04:00:33.302Z,31.01
2023-04-11T04:01:33.287Z,30.84
2023-04-11T04:02:33.385Z,30.34
2023-04-11T04:03:33.479Z,32.00
2023-04-11T04:04:33.378Z,30.43
2023-04-11T04:05:33.299Z,31.01
2023-04-11T04:06:33.322Z,30.14
2023-04-11T04:07:33.359Z,31.41
2023-04-11T04:08:33.359Z,31.18
2023-04-11T04:09:33.384Z,31.34
2023-04-11T04:10:33.387Z,32.12
2023-04-11T04:11:33.398Z,29.00
2023-04-11T04:12:33.841Z,31.06
2023-04-11T04:13:33.412Z,31.32
2023-04-11T04:14:33.420Z,30.47
2023-04-11T04:15:33.454Z,30.65
2023-04-11T04:16:33.500Z,29.08
2023-04-11T04:17:33.486Z,30.68
2023-04-11T04:18:33.485Z,31.16
2023-04-11T04:19:33.543Z,30.69
2023-04-11T04:20:33.485Z,26.34
2023-04-11T04:21:33.491Z,29.35
2023-04-11T04:22:33.534Z,31.87
2023-04-11T04:23:33.555Z,31.70
2023-04-11T04:24:33.602Z,32.06
2023-04-11T04:25:33.618Z,31.57
2023-04-11T04:26:33.694Z,30.31
2023-04-11T04:27:33.652Z,30.50
2023-04-11T04:28:33.697Z,30.49
2023-04-11T04:29:33.730Z,29.88
2023-04-11T04:30:33.714Z,30.59
2023-04-11T04:31:34.132Z,29.19
2023-04-11T04:32:33.894Z,28.35
2023-04-11T04:33:33.798Z,31.31
2023-04-11T04:34:33.825Z,30.00
2023-04-11T04:35:33.881Z,28.29
2023-04-11T04:36:33.897Z,30.48
2023-04-11T04:37:33.917Z,31.26
2023-04-11T04:38:33.984Z,29.91
2023-04-11T04:39:34.048Z,28.48
2023-04-11T04:40:34.005Z,30.67
2023-04-11T04:41:34.065Z,29.74
2023-04-11T04:42:34.056Z,28.86
2023-04-11T04:43:34.083Z,31.31
2023-04-11T04:44:34.099Z,30.82
2023-04-11T04:45:34.120Z,28.96
2023-04-11T04:46:34.084Z,29.97
2023-04-11T04:47:34.160Z,30.69
2023-04-11T04:48:34.148Z,28.13
2023-04-11T04:49:34.163Z,29.75
2023-04-11T04:50:34.144Z,30.20
2023-04-11T04:51:34.177Z,28.20
2023-04-11T04:52:34.134Z,29.67
2023-04-11T04:53:34.155Z,27.52
2023-04-11T04:54:34.192Z,27.31
2023-04-11T04:55:34.171Z,30.39
2023-04-11T04:56:34.176Z,26.71
2023-04-11T04:57:34.162Z,27.43
2023-04-11T04:58:34.212Z,29.12
2023-04-11T04:59:34.178Z,26.62
2023-04-11T05:00:34.191Z,30.83
2023-04-11T05:01:34.234Z,27.66
2023-04-11T05:02:34.360Z,28.15
2023-04-11T05:03:34.336Z,26.53
2023-04-11T05:04:34.328Z,29.58
2023-04-11T05:05:34.298Z,29.30
2023-04-11T05:06:34.308Z,28.51
2023-04-11T05:07:34.274Z,26.79
2023-04-11T05:08:34.294Z,28.72
2023-04-11T05:09:34.319Z,28.97
2023-04-11T05:10:34.336Z,28.04
2023-04-11T05:11:34.345Z,27.97
2023-04-11T05:12:34.369Z,26.05
2023-04-11T05:13:34.359Z,28.74
2023-04-11T05:14:34.350Z,27.31
2023-04-11T05:15:34.364Z,25.70
2023-04-11T05:16:34.426Z,25.00
2023-04-11T05:17:34.413Z,28.70
2023-04-11T05:18:34.404Z,28.08
2023-04-11T05:19:34.423Z,30.37
2023-04-11T05:20:34.459Z,28.77
2023-04-11T05:21:34.475Z,29.54
2023-04-11T05:22:34.483Z,27.55
2023-04-11T05:23:34.446Z,28.10
2023-04-11T05:24:34.435Z,30.65
2023-04-11T05:25:34.516Z,31.16
2023-04-11T05:26:34.573Z,30.19
2023-04-11T05:27:34.535Z,30.89
2023-04-11T05:28:34.548Z,30.02
2023-04-11T05:29:34.566Z,30.71
2023-04-11T05:30:34.578Z,30.87
2023-04-11T05:31:36.450Z,33.09
2023-04-11T05:32:35.040Z,33.40
2023-04-11T05:33:34.581Z,34.05
2023-04-11T05:34:34.585Z,36.21
2023-04-11T05:35:34.681Z,37.42
2023-04-11T05:36:34.616Z,44.01
2023-04-11T05:37:34.983Z,42.97
2023-04-11T05:38:34.608Z,49.24
2023-04-11T05:39:35.548Z,50.01
2023-04-11T05:40:34.694Z,55.77
2023-04-11T05:41:34.712Z,79.54
2023-04-11T05:42:35.086Z,110.89
2023-04-11T05:43:34.728Z,109.70
2023-04-11T05:44:34.841Z,128.41
2023-04-11T05:45:41.858Z,142.29
2023-04-11T05:46:34.847Z,143.20
2023-04-11T05:47:35.079Z,147.71
2023-04-11T05:48:34.841Z,157.62
2023-04-11T05:49:34.822Z,179.04
2023-04-11T05:50:34.783Z,199.62
2023-04-11T05:51:34.760Z,206.77
2023-04-11T05:52:34.764Z,205.67
2023-04-11T05:53:34.777Z,216.32
2023-04-11T05:54:34.791Z,215.17
2023-04-11T05:55:34.803Z,223.77
2023-04-11T05:56:34.759Z,228.02
2023-04-11T05:57:35.008Z,242.03
2023-04-11T05:58:34.717Z,248.80
2023-04-11T05:59:34.752Z,250.00
2023-04-11T06:00:34.707Z,249.17
2023-04-11T06:01:34.716Z,246.81
2023-04-11T06:02:34.887Z,249.98
2023-04-11T06:03:34.892Z,249.68
2023-04-11T06:04:34.948Z,248.65
2023-04-11T06:05:34.676Z,249.33
2023-04-11T06:06:34.685Z,249.61
2023-04-11T06:07:35.018Z,250.00
2023-04-11T06:08:34.671Z,248.81
2023-04-11T06:09:34.665Z,250.00
2023-04-11T06:10:34.641Z,249.23
2023-04-11T06:11:34.623Z,250.00
2023-04-11T06:12:34.664Z,249.72
2023-04-11T06:13:34.622Z,249.31
2023-04-11T06:14:34.605Z,250.09
2023-04-11T06:15:34.694Z,246.85
2023-04-11T06:16:34.605Z,249.21
2023-04-11T06:17:34.612Z,249.77
2023-04-11T06:18:34.598Z,249.40
2023-04-11T06:19:34.584Z,249.54
2023-04-11T06:20:34.574Z,249.23
2023-04-11T06:21:34.565Z,249.04
2023-04-11T06:22:34.543Z,250.75
2023-04-11T06:23:34.571Z,248.70
2023-04-11T06:24:34.528Z,249.50
2023-04-11T06:25:34.542Z,248.89
2023-04-11T06:26:34.554Z,250.21
2023-04-11T06:27:34.560Z,247.30
2023-04-11T06:28:34.503Z,247.47
2023-04-11T06:29:34.705Z,250.00
2023-04-11T06:30:34.516Z,250.66
2023-04-11T06:31:34.570Z,247.33
2023-04-11T06:32:34.629Z,247.87
2023-04-11T06:33:34.711Z,247.94
2023-04-11T06:34:34.771Z,250.28
2023-04-11T06:35:34.821Z,250.00
2023-04-11T06:36:34.864Z,249.08
2023-04-11T06:37:34.954Z,248.80
2023-04-11T06:38:34.977Z,250.00
2023-04-11T06:39:35.127Z,249.45
2023-04-11T06:40:35.125Z,244.65
2023-04-11T06:41:35.165Z,221.04
2023-04-11T06:42:35.213Z,199.50
2023-04-11T06:43:35.220Z,195.97
2023-04-11T06:44:35.257Z,195.52
2023-04-11T06:45:35.238Z,197.57
2023-04-11T06:46:35.301Z,194.51
2023-04-11T06:47:35.590Z,190.84
2023-04-11T06:48:35.219Z,222.88
2023-04-11T06:49:35.222Z,210.12
2023-04-11T06:50:35.280Z,196.06
2023-04-11T06:51:35.237Z,187.10
2023-04-11T06:52:35.220Z,175.77
2023-04-11T06:53:35.192Z,170.64
2023-04-11T06:54:35.193Z,164.93
2023-04-11T06:55:35.218Z,158.99
2023-04-11T06:56:35.196Z,155.37
2023-04-11T06:57:35.211Z,152.65
2023-04-11T06:58:35.535Z,148.16
2023-04-11T06:59:35.216Z,140.33
2023-04-11T07:00:35.201Z,135.88
2023-04-11T07:01:35.244Z,133.08
2023-04-11T07:02:35.454Z,135.43
2023-04-11T07:03:35.307Z,134.36
2023-04-11T07:04:35.384Z,127.28
2023-04-11T07:05:36.551Z,123.96
2023-04-11T07:06:35.249Z,124.05
2023-04-11T07:07:35.240Z,119.89
2023-04-11T07:08:35.347Z,123.31
2023-04-11T07:09:35.311Z,124.99
2023-04-11T07:10:35.279Z,126.47
2023-04-11T07:11:35.274Z,129.53
2023-04-11T07:12:35.257Z,132.38
2023-04-11T07:13:35.300Z,136.62
2023-04-11T07:14:35.267Z,140.85
2023-04-11T07:15:35.295Z,145.04
2023-04-11T07:16:35.377Z,151.82
2023-04-11T07:17:35.387Z,153.32
2023-04-11T07:18:35.424Z,156.99
2023-04-11T07:19:35.475Z,159.40
2023-04-11T07:20:35.550Z,165.60
2023-04-11T07:21:35.620Z,170.17
2023-04-11T07:22:35.643Z,171.18
2023-04-11T07:23:35.706Z,184.69
2023-04-11T07:24:35.803Z,185.43
2023-04-11T07:25:35.800Z,188.78
2023-04-11T07:26:35.872Z,188.67
2023-04-11T07:27:35.914Z,193.57
2023-04-11T07:28:35.941Z,193.34
2023-04-11T07:29:36.005Z,199.60
2023-04-11T07:30:36.026Z,204.90
2023-04-11T07:31:36.083Z,209.99
2023-04-11T07:32:36.117Z,207.46
2023-04-11T07:33:36.567Z,209.31
2023-04-11T07:34:36.225Z,213.92
2023-04-11T07:35:36.234Z,220.00
2023-04-11T07:36:36.279Z,220.85
2023-04-11T07:37:36.321Z,221.37
2023-04-11T07:38:36.594Z,217.23
2023-04-11T07:39:36.393Z,215.49
2023-04-11T07:40:36.458Z,205.62
2023-04-11T07:41:36.469Z,198.42
2023-04-11T07:42:36.534Z,184.96
2023-04-11T07:43:37.111Z,178.87
2023-04-11T07:44:36.639Z,179.29
2023-04-11T07:45:36.720Z,180.88
2023-04-11T07:46:36.737Z,170.79
2023-04-11T07:47:36.784Z,166.33
2023-04-11T07:48:36.861Z,158.96
2023-04-11T07:49:36.920Z,156.80
2023-04-11T07:50:36.976Z,157.32
2023-04-11T07:51:37.014Z,149.47
2023-04-11T07:52:37.098Z,144.24
2023-04-11T07:53:37.139Z,132.65
2023-04-11T07:54:37.192Z,126.39
2023-04-11T07:55:37.297Z,120.93
2023-04-11T07:56:37.320Z,126.47
2023-04-11T07:57:37.388Z,122.00
2023-04-11T07:58:37.471Z,116.52
2023-04-11T07:59:37.550Z,117.22
2023-04-11T08:00:37.620Z,114.14
2023-04-11T08:01:37.755Z,109.64
2023-04-11T08:02:37.960Z,100.41
2023-04-11T08:03:37.954Z,99.47
2023-04-11T08:04:37.987Z,104.20
2023-04-11T08:05:37.923Z,100.57
2023-04-11T08:06:38.008Z,101.10
2023-04-11T08:07:38.044Z,99.83
2023-04-11T08:08:38.121Z,104.47
2023-04-11T08:09:38.150Z,105.22
2023-04-11T08:10:38.235Z,104.69
2023-04-11T08:11:38.297Z,105.25
2023-04-11T08:12:38.356Z,104.22
2023-04-11T08:13:38.421Z,101.59
2023-04-11T08:14:38.477Z,101.16
2023-04-11T08:15:38.538Z,106.05
2023-04-11T08:16:38.738Z,104.43
2023-04-11T08:17:38.791Z,108.23
2023-04-11T08:18:38.702Z,111.27
2023-04-11T08:19:38.759Z,114.48
2023-04-11T08:20:38.847Z,116.24
2023-04-11T08:21:38.883Z,113.02
2023-04-11T08:22:38.956Z,112.36
2023-04-11T08:23:39.026Z,113.49
2023-04-11T08:24:39.051Z,107.91
2023-04-11T08:25:39.161Z,104.81
2023-04-11T08:26:39.373Z,105.06
2023-04-11T08:27:39.232Z,111.72
2023-04-11T08:28:41.107Z,113.53
2023-04-11T08:29:39.297Z,116.46
2023-04-11T08:30:39.300Z,108.74
2023-04-11T08:31:39.276Z,88.70
2023-04-11T08:32:39.289Z,89.53
2023-04-11T08:33:39.288Z,95.48
2023-04-11T08:34:39.233Z,95.63
2023-04-11T08:35:39.231Z,91.10
2023-04-11T08:36:39.252Z,90.78
2023-04-11T08:37:39.300Z,88.91
2023-04-11T08:38:39.229Z,86.35
2023-04-11T08:39:39.221Z,87.98
2023-04-11T08:40:39.189Z,83.99
2023-04-11T08:41:39.202Z,78.22
2023-04-11T08:42:39.218Z,68.80
2023-04-11T08:43:39.198Z,62.98
2023-04-11T08:44:39.192Z,61.88
2023-04-11T08:45:39.251Z,59.83
2023-04-11T08:46:39.245Z,55.83
2023-04-11T08:47:39.363Z,55.95
2023-04-11T08:48:39.588Z,56.20
2023-04-11T08:49:39.219Z,56.69
2023-04-11T08:50:39.187Z,53.75
2023-04-11T08:51:39.149Z,55.82
2023-04-11T08:52:39.134Z,58.39
2023-04-11T08:53:39.592Z,69.10
2023-04-11T08:54:39.123Z,77.99
2023-04-11T08:55:39.128Z,82.41
2023-04-11T08:56:39.125Z,74.75
2023-04-11T08:57:39.103Z,74.60
2023-04-11T08:58:39.519Z,72.59
2023-04-11T08:59:39.084Z,73.38
2023-04-11T09:00:39.256Z,74.80
2023-04-11T09:01:39.138Z,74.92
2023-04-11T09:02:39.149Z,70.12
2023-04-11T09:03:39.108Z,71.81
2023-04-11T09:04:39.090Z,74.94
2023-04-11T09:05:39.076Z,65.27
2023-04-11T09:06:39.027Z,67.56
2023-04-11T09:07:39.035Z,62.42
2023-04-11T09:08:39.004Z,69.36
2023-04-11T09:09:39.032Z,57.92
2023-04-11T09:10:39.013Z,58.43
2023-04-11T09:11:38.997Z,48.52
2023-04-11T09:12:39.023Z,57.44
2023-04-11T09:13:38.977Z,56.28
2023-04-11T09:14:39.036Z,50.93
2023-04-11T09:15:39.050Z,56.09
2023-04-11T09:16:39.308Z,48.64
2023-04-11T09:17:38.974Z,39.71
2023-04-11T09:18:38.958Z,31.54
2023-04-11T09:19:38.947Z,39.53
2023-04-11T09:20:38.956Z,41.93
2023-04-11T09:21:39.131Z,45.68
2023-04-11T09:22:39.388Z,41.92
2023-04-11T09:23:38.929Z,44.67
2023-04-11T09:24:38.926Z,55.13
2023-04-11T09:25:38.889Z,57.28
2023-04-11T09:26:38.910Z,59.74
2023-04-11T09:27:38.903Z,62.24
2023-04-11T09:28:39.127Z,60.46
2023-04-11T09:29:38.899Z,58.50
2023-04-11T09:30:38.893Z,57.28
2023-04-11T09:31:38.907Z,49.59
2023-04-11T09:32:38.925Z,44.65
2023-04-11T09:33:38.838Z,49.29
2023-04-11T09:34:40.569Z,48.14
2023-04-11T09:35:38.927Z,54.61
2023-04-11T09:36:38.844Z,49.10
2023-04-11T09:37:38.835Z,46.70
2023-04-11T09:38:38.851Z,45.40
2023-04-11T09:39:39.094Z,43.72
2023-04-11T09:40:38.788Z,47.51
2023-04-11T09:41:38.827Z,52.50
2023-04-11T09:42:38.800Z,63.80
2023-04-11T09:43:38.770Z,66.26
2023-04-11T09:44:39.146Z,67.68
2023-04-11T09:45:51.725Z,71.08
2023-04-11T09:46:39.812Z,69.67
2023-04-11T09:47:38.813Z,61.82
2023-04-11T09:48:46.664Z,59.80
2023-04-11T09:49:39.779Z,65.22
2023-04-11T09:50:38.773Z,53.55
2023-04-11T09:51:38.740Z,44.17
2023-04-11T09:52:38.735Z,40.73
2023-04-11T09:53:38.750Z,34.81
2023-04-11T09:54:38.722Z,32.29
2023-04-11T09:55:38.724Z,32.42
2023-04-11T09:56:38.711Z,31.80
2023-04-11T09:57:38.712Z,29.97
2023-04-11T09:58:38.707Z,25.56
2023-04-11T09:59:39.132Z,26.23
2023-04-11T10:00:38.718Z,24.15
2023-04-11T10:01:38.813Z,25.27
2023-04-11T10:02:38.964Z,26.76
2023-04-11T10:03:38.890Z,29.03
2023-04-11T10:04:38.949Z,25.46
2023-04-11T10:05:38.969Z,25.00
2023-04-11T10:06:39.126Z,25.00
2023-04-11T10:07:39.100Z,27.10
2023-04-11T10:08:39.167Z,30.63
2023-04-11T10:09:39.196Z,30.29
2023-04-11T10:10:39.260Z,30.46
2023-04-11T10:11:39.322Z,26.51
2023-04-11T10:12:39.360Z,25.00
2023-04-11T10:13:39.389Z,28.71
2023-04-11T10:14:39.730Z,30.71
2023-04-11T10:15:39.509Z,30.08
2023-04-11T10:16:39.579Z,26.13
2023-04-11T10:17:39.531Z,25.29
2023-04-11T10:18:39.555Z,25.34
2023-04-11T10:19:39.570Z,25.55
2023-04-11T10:20:39.576Z,26.59
2023-04-11T10:21:39.616Z,28.83
2023-04-11T10:22:39.660Z,30.03
2023-04-11T10:23:39.703Z,28.05
2023-04-11T10:24:39.726Z,24.92
2023-04-11T10:25:39.690Z,25.32
2023-04-11T10:26:39.681Z,26.95
2023-04-11T10:27:39.678Z,27.06
2023-04-11T10:28:39.724Z,25.93
2023-04-11T10:29:39.704Z,29.33
2023-04-11T10:30:39.757Z,32.03
2023-04-11T10:31:39.777Z,34.12
2023-04-11T10:32:39.736Z,34.97
2023-04-11T10:33:39.724Z,34.79
2023-04-11T10:34:39.707Z,34.65
2023-04-11T10:35:39.716Z,27.94
2023-04-11T10:36:39.713Z,28.46
2023-04-11T10:37:39.706Z,54.89
2023-04-11T10:38:39.744Z,79.14
2023-04-11T10:39:39.777Z,60.95
2023-04-11T10:40:39.788Z,74.91
2023-04-11T10:41:39.813Z,84.74
2023-04-11T10:42:39.770Z,97.54
2023-04-11T10:43:39.843Z,85.70
2023-04-11T10:44:39.855Z,93.73
2023-04-11T10:45:39.947Z,89.88
2023-04-11T10:46:39.981Z,94.43
2023-04-11T10:47:40.037Z,97.62
2023-04-11T10:48:40.063Z,103.64
2023-04-11T10:49:40.145Z,95.02
2023-04-11T10:50:40.172Z,93.71
2023-04-11T10:51:40.227Z,107.19
2023-04-11T10:52:40.258Z,92.65
2023-04-11T10:53:40.294Z,91.46
2023-04-11T10:54:40.641Z,91.99
2023-04-11T10:55:40.326Z,98.32
2023-04-11T10:56:40.340Z,114.75
2023-04-11T10:57:40.409Z,116.85
2023-04-11T10:58:40.408Z,120.72
2023-04-11T10:59:40.451Z,115.14
2023-04-11T11:00:40.486Z,117.43
2023-04-11T11:02:41.104Z,121.17
2023-04-11T11:03:40.654Z,124.88
2023-04-11T11:04:40.699Z,134.40
2023-04-11T11:05:40.605Z,131.60
2023-04-11T11:06:47.175Z,132.47
2023-04-11T11:07:41.553Z,132.66
2023-04-11T11:08:40.550Z,133.80
2023-04-11T11:09:40.667Z,136.58
2023-04-11T11:10:41.241Z,136.97
2023-04-11T11:11:40.603Z,143.23
2023-04-11T11:12:40.533Z,143.32
2023-04-11T11:13:40.521Z,151.72
2023-04-11T11:14:40.547Z,248.63
2023-04-11T11:15:40.723Z,191.97
2023-04-11T11:16:40.611Z,168.98
2023-04-11T11:17:40.528Z,366.26
2023-04-11T11:18:40.472Z,245.28
2023-04-11T11:19:40.503Z,198.55
2023-04-11T11:20:40.482Z,169.90
2023-04-11T11:21:40.533Z,167.58
2023-04-11T11:22:40.477Z,158.54
2023-04-11T11:23:40.454Z,153.10
2023-04-11T11:24:40.418Z,152.52
2023-04-11T11:25:40.667Z,171.28
2023-04-11T11:26:40.526Z,177.54
2023-04-11T11:27:40.395Z,181.14
2023-04-11T11:28:40.495Z,190.96
2023-04-11T11:29:40.426Z,197.20
2023-04-11T11:30:40.677Z,202.23
2023-04-11T11:31:40.406Z,204.65
2023-04-11T11:32:40.423Z,207.70
2023-04-11T11:33:40.392Z,211.53
2023-04-11T11:34:40.382Z,214.75
2023-04-11T11:35:40.662Z,216.33
2023-04-11T11:36:40.418Z,217.85
2023-04-11T11:37:40.374Z,220.26
2023-04-11T11:38:40.358Z,220.64
2023-04-11T11:39:40.390Z,222.36
2023-04-11T11:40:40.635Z,222.75
2023-04-11T11:41:40.335Z,222.68
2023-04-11T11:42:40.318Z,222.89
2023-04-11T11:43:40.302Z,223.32
2023-04-11T11:44:40.292Z,224.14
2023-04-11T11:45:41.164Z,222.63
2023-04-11T11:46:40.467Z,224.46
2023-04-11T11:47:40.310Z,224.06
2023-04-11T11:48:40.294Z,223.65
2023-04-11T11:49:40.291Z,222.97
2023-04-11T11:50:40.295Z,224.18
2023-04-11T11:51:40.328Z,224.57
2023-04-11T11:52:40.362Z,223.33
2023-04-11T11:53:40.378Z,222.02
2023-04-11T11:54:40.393Z,222.70
2023-04-11T11:55:40.401Z,222.85
2023-04-11T11:56:40.495Z,223.70
2023-04-11T11:57:40.529Z,221.23
2023-04-11T11:58:40.487Z,221.97
2023-04-11T11:59:40.565Z,221.48
2023-04-11T12:00:40.541Z,220.17
2023-04-11T12:01:40.590Z,218.94
2023-04-11T12:02:40.961Z,220.47
2023-04-11T12:03:40.783Z,220.91
2023-04-11T12:04:41.058Z,220.37
2023-04-11T12:05:40.726Z,221.07
2023-04-11T12:06:40.703Z,219.37
2023-04-11T12:07:40.769Z,221.68
2023-04-11T12:08:40.763Z,219.70
2023-04-11T12:09:40.838Z,219.15
2023-04-11T12:10:40.876Z,220.46
2023-04-11T12:11:40.909Z,216.62
2023-04-11T12:12:41.198Z,216.73
2023-04-11T12:13:40.969Z,217.03
2023-04-11T12:14:41.014Z,217.92
2023-04-11T12:15:41.108Z,216.74
2023-04-11T12:16:41.060Z,214.91
2023-04-11T12:17:41.266Z,216.17
2023-04-11T12:18:41.132Z,214.87
2023-04-11T12:19:41.204Z,214.77
2023-04-11T12:20:41.188Z,213.52
2023-04-11T12:21:41.233Z,213.97
2023-04-11T12:22:41.295Z,214.36
2023-04-11T12:23:41.298Z,213.82
2023-04-11T12:24:41.302Z,214.41
2023-04-11T12:25:41.354Z,212.44
2023-04-11T12:26:57.376Z,212.33
2023-04-11T12:27:42.398Z,212.46
2023-04-11T12:28:41.355Z,212.67
2023-04-11T12:29:41.379Z,213.36
2023-04-11T12:30:41.354Z,213.94
2023-04-11T12:31:43.237Z,214.93
2023-04-11T12:32:41.397Z,216.19
2023-04-11T12:33:41.343Z,214.77
2023-04-11T12:34:41.327Z,216.26
2023-04-11T12:35:41.363Z,214.91
2023-04-11T12:36:41.310Z,215.29
2023-04-11T12:37:41.304Z,215.42
2023-04-11T12:38:41.406Z,215.40
2023-04-11T12:39:41.309Z,215.97
2023-04-11T12:40:41.295Z,217.67
2023-04-11T12:41:41.295Z,216.98
2023-04-11T12:42:53.477Z,215.13
2023-04-11T12:43:42.302Z,215.30
2023-04-11T12:44:41.250Z,215.62